createdAt,value
2022-08-22T00:00:08.463Z,0.169
2022-08-22T00:02:51.326Z,0.133
2022-08-22T00:03:06.058Z,0.15
2022-08-22T00:05:08.279Z,0.314
2022-08-22T00:10:08.347Z,1.2730000000000001
2022-08-22T00:15:08.448Z,1.239
2022-08-22T00:20:08.453Z,1.264
2022-08-22T00:25:08.508Z,1.2510000000000001
2022-08-22T00:30:08.322Z,1.239
2022-08-22T00:35:08.418Z,1.154
2022-08-22T00:40:08.653Z,1.1440000000000001
2022-08-22T00:45:08.516Z,1.127
2022-08-22T00:50:08.331Z,1.166
2022-08-22T00:55:08.435Z,1.168
2022-08-22T01:00:08.389Z,1.198
2022-08-22T01:05:08.408Z,1.247
2022-08-22T01:10:08.336Z,1.119
2022-08-22T01:15:08.396Z,0.544
2022-08-22T01:20:08.390Z,0.094
2022-08-22T01:25:10.350Z,0
2022-08-22T01:30:08.501Z,0
2022-08-22T01:35:08.377Z,0
2022-08-22T01:40:08.517Z,0.031
2022-08-22T01:45:08.364Z,0.423
2022-08-22T01:50:08.504Z,0.24
2022-08-22T01:55:08.483Z,0.125
2022-08-22T02:00:05.631Z,0.17300000000000001
2022-08-22T02:05:05.624Z,0.17
2022-08-22T02:10:05.601Z,0.171
2022-08-22T02:15:05.700Z,0.131
2022-08-22T02:20:05.761Z,0.127
2022-08-22T02:25:06.982Z,0.134
2022-08-22T02:30:05.637Z,0.137
2022-08-22T02:35:05.631Z,0.135
2022-08-22T02:40:05.785Z,0.169
2022-08-22T02:45:05.643Z,0.183
2022-08-22T02:50:05.656Z,0.177
2022-08-22T02:55:05.698Z,0.157
2022-08-22T03:00:05.777Z,0.125
2022-08-22T03:05:05.652Z,0.125
2022-08-22T03:10:05.655Z,0.122
2022-08-22T03:15:05.748Z,0.121
2022-08-22T03:20:05.739Z,0.121
2022-08-22T03:25:05.863Z,0.17200000000000001
2022-08-22T03:30:05.679Z,0.176
2022-08-22T03:35:05.855Z,0.17200000000000001
2022-08-22T03:40:05.773Z,0.14
2022-08-22T03:45:06.962Z,0.128
2022-08-22T03:50:05.696Z,0.137
2022-08-22T03:55:05.755Z,0.14200000000000002
2022-08-22T04:00:05.762Z,0.14100000000000001
2022-08-22T04:05:05.791Z,0.166
2022-08-22T04:10:05.837Z,14.236
2022-08-22T04:15:05.755Z,39.980000000000004
2022-08-22T04:20:05.715Z,39.08
2022-08-22T04:25:07.922Z,52.607
2022-08-22T04:30:05.847Z,53.179
2022-08-22T04:35:05.738Z,76.796
2022-08-22T04:40:05.824Z,93.652
2022-08-22T04:45:05.765Z,112.391
2022-08-22T04:50:05.834Z,128.552
2022-08-22T04:55:06.018Z,144.947
2022-08-22T05:00:05.815Z,159.866
2022-08-22T05:05:10.474Z,174.779
2022-08-22T05:10:09.415Z,186.40800000000002
2022-08-22T05:15:05.913Z,197.016
2022-08-22T05:20:05.757Z,208.247
2022-08-22T05:25:05.807Z,220.11100000000002
2022-08-22T05:30:05.769Z,232.31300000000002
2022-08-22T05:35:05.897Z,252.044
2022-08-22T05:40:05.998Z,286.568
2022-08-22T05:45:05.925Z,337.17400000000004
2022-08-22T05:50:05.848Z,407.77
2022-08-22T05:55:05.818Z,493.50800000000004
2022-08-22T06:00:06.035Z,590.859
2022-08-22T06:05:08.673Z,702.5740000000001
2022-08-22T06:10:05.834Z,825.186
2022-08-22T06:15:11.714Z,961.479
2022-08-22T06:20:05.860Z,1120.809
2022-08-22T06:25:06.075Z,1286.448
2022-08-22T06:30:05.825Z,1456.507
2022-08-22T06:35:05.835Z,1662.204
2022-08-22T06:40:05.909Z,1888.837
2022-08-22T06:45:05.993Z,2098.975
2022-08-22T06:50:05.856Z,2282.2870000000003
2022-08-22T06:55:06.072Z,2463.619
2022-08-22T07:00:05.889Z,2642.768
2022-08-22T07:05:05.878Z,2809.877
2022-08-22T07:10:06.040Z,2979.349
2022-08-22T07:15:05.854Z,3148.007
2022-08-22T07:20:05.896Z,3311.4210000000003
2022-08-22T07:25:05.911Z,3469.804
2022-08-22T07:30:06.019Z,3628.15
2022-08-22T07:35:05.882Z,3785.457
2022-08-22T07:40:06.015Z,3945.299
2022-08-22T07:45:05.947Z,4104.781
2022-08-22T07:50:05.940Z,4249.541
2022-08-22T07:55:06.101Z,4394.09
2022-08-22T08:00:05.901Z,4541.673
2022-08-22T08:05:05.972Z,4666.3060000000005
2022-08-22T08:10:07.945Z,4789.389
2022-08-22T08:15:06.304Z,4931.7970000000005
2022-08-22T08:20:05.954Z,5050.3640000000005
2022-08-22T08:25:06.019Z,5187.8240000000005
2022-08-22T08:30:05.934Z,5312.945
2022-08-22T08:35:06.000Z,5395.968
2022-08-22T08:40:06.223Z,5510.529
2022-08-22T08:45:06.013Z,5645.624
2022-08-22T08:50:06.425Z,5537.654
2022-08-22T08:55:10.475Z,5702.149
2022-08-22T09:00:06.274Z,5777.361
2022-08-22T09:45:09.468Z,0.067
2022-08-22T09:50:01.744Z,2061.129
2022-08-22T09:55:01.376Z,5931.412
2022-08-22T10:00:02.090Z,6061.094
2022-08-22T10:05:01.382Z,5721.889
2022-08-22T10:10:01.533Z,6189.271
2022-08-22T10:15:01.626Z,6868.309
2022-08-22T10:20:01.412Z,6481.284000000001
2022-08-22T10:25:01.405Z,5926.307
2022-08-22T10:30:01.398Z,6186.8240000000005
2022-08-22T10:35:01.415Z,5497.4580000000005
2022-08-22T10:40:01.485Z,4673.053
2022-08-22T10:45:01.487Z,6858.126
2022-08-22T10:50:01.441Z,7587.67
2022-08-22T10:55:01.434Z,3557.06
2022-08-22T11:00:01.642Z,2852.933
2022-08-22T11:05:01.440Z,2132.664
2022-08-22T11:10:01.586Z,2081.978
2022-08-22T11:15:03.048Z,3020.5660000000003
2022-08-22T11:20:01.560Z,4846.725
2022-08-22T11:25:04.325Z,4804.108
2022-08-22T11:30:01.477Z,5195.96
2022-08-22T11:35:01.526Z,5359.533
2022-08-22T11:40:01.513Z,5069.6050000000005
2022-08-22T11:45:01.620Z,4692.392
2022-08-22T11:50:01.689Z,2974.32
2022-08-22T11:55:01.468Z,5263.369
2022-08-22T12:00:01.486Z,6712.496
2022-08-22T12:05:01.536Z,7592.078
2022-08-22T12:10:01.503Z,7149.795
2022-08-22T12:15:01.571Z,2543.379
2022-08-22T12:20:15.356Z,2572.585
2022-08-22T12:25:03.018Z,2125.7980000000002
2022-08-22T12:30:01.469Z,2083.001
2022-08-22T12:35:01.645Z,1899.026
2022-08-22T12:40:01.633Z,1623.301
2022-08-22T12:45:01.610Z,2465.899
2022-08-22T12:50:01.546Z,3742.161
2022-08-22T12:55:01.521Z,2456.117
2022-08-22T13:00:01.717Z,2169.286
2022-08-22T13:05:01.560Z,2972.736
2022-08-22T13:10:01.684Z,5951.262
2022-08-22T13:15:01.602Z,5379.354
2022-08-22T13:20:01.644Z,5545.045
2022-08-22T13:25:01.530Z,6541.745
2022-08-22T13:30:01.549Z,3753.342
2022-08-22T13:35:01.609Z,1669.179
2022-08-22T13:40:01.783Z,2513.753
2022-08-22T13:45:02.348Z,2968.362
2022-08-22T13:50:01.609Z,3339.969
2022-08-22T13:55:01.699Z,3391.404
2022-08-22T14:00:06.070Z,3465.302
2022-08-22T14:05:01.617Z,3553.165
2022-08-22T14:10:02.533Z,3622.494
2022-08-22T14:15:01.671Z,2872.0480000000002
2022-08-22T14:20:01.884Z,2795.039
2022-08-22T14:25:01.603Z,2654.265
2022-08-22T14:30:01.797Z,2315.635
2022-08-22T14:35:01.687Z,2566.983
2022-08-22T14:40:01.736Z,2929.129
2022-08-22T14:45:01.756Z,2571.122
2022-08-22T14:50:01.596Z,2285.227
2022-08-22T14:55:04.984Z,2422.311
2022-08-22T15:00:01.619Z,3099.8070000000002
2022-08-22T15:05:01.898Z,3388.788
2022-08-22T15:10:03.049Z,3923.594
2022-08-22T15:15:01.855Z,3593.426
2022-08-22T15:20:01.711Z,4681.256
2022-08-22T15:25:01.615Z,4535.993
2022-08-22T15:30:01.742Z,3641.937
2022-08-22T15:35:01.651Z,2189.592
2022-08-22T15:40:02.782Z,1919.67
2022-08-22T15:45:01.725Z,2330.107
2022-08-22T15:50:01.914Z,2375.235
2022-08-22T15:55:01.691Z,2431.678
2022-08-22T16:00:01.830Z,1628.1490000000001
2022-08-22T16:05:01.679Z,1340.323
2022-08-22T16:10:01.756Z,2227.529
2022-08-22T16:15:01.764Z,2813.6730000000002
2022-08-22T16:20:01.832Z,1975.421
2022-08-22T16:25:01.882Z,2036.3690000000001
2022-08-22T16:30:01.782Z,2339.763
2022-08-22T16:35:01.828Z,2583.119
2022-08-22T16:40:01.979Z,1199.881
2022-08-22T16:45:01.792Z,1022.832
2022-08-22T16:50:01.726Z,1184.744
2022-08-22T16:55:01.747Z,1348.051
2022-08-22T17:00:01.721Z,1075.769
2022-08-22T17:05:01.747Z,762.173
2022-08-22T17:10:01.920Z,692.836
2022-08-22T17:15:01.810Z,521.999
2022-08-22T17:20:01.887Z,454.332
2022-08-22T17:25:01.744Z,386.113
2022-08-22T17:30:01.749Z,342.044
2022-08-22T17:35:01.778Z,296.103
2022-08-22T17:40:01.813Z,257.632
2022-08-22T17:45:01.807Z,240.499
2022-08-22T17:50:01.769Z,220.382
2022-08-22T17:55:01.914Z,199.77
2022-08-22T18:00:01.825Z,167.352
2022-08-22T18:05:01.809Z,110.46000000000001
2022-08-22T18:10:01.764Z,45.697
2022-08-22T18:15:01.888Z,12.148
2022-08-22T18:20:01.878Z,17.599
2022-08-22T18:25:01.831Z,20.42
2022-08-22T18:30:02.003Z,4.614
2022-08-22T18:35:02.765Z,0.006
2022-08-22T18:40:01.933Z,0.005
2022-08-22T18:45:01.896Z,0.166
2022-08-22T18:50:01.805Z,0.15
2022-08-22T18:55:01.847Z,0.033
2022-08-22T19:00:01.922Z,0.10400000000000001
2022-08-22T19:05:01.836Z,0
2022-08-22T19:10:01.848Z,0.001
2022-08-22T19:15:02.128Z,0.083
2022-08-22T19:20:01.907Z,0.125
2022-08-22T19:25:01.893Z,0.147
2022-08-22T19:30:01.899Z,0.18
2022-08-22T19:35:02.230Z,0.075
2022-08-22T19:40:01.935Z,0.095
2022-08-22T19:45:01.933Z,0.07100000000000001
2022-08-22T19:50:02.011Z,0.088
2022-08-22T19:55:01.877Z,0.137
2022-08-22T20:00:01.981Z,0.145
2022-08-22T20:05:01.921Z,0.059000000000000004
2022-08-22T20:10:01.914Z,0.179
2022-08-22T20:15:02.144Z,0.14
2022-08-22T20:20:18.105Z,0.095
2022-08-22T20:25:02.041Z,0
2022-08-22T20:30:01.949Z,0.06
2022-08-22T20:35:01.914Z,0.117
2022-08-22T20:40:01.996Z,0.001
2022-08-22T20:45:01.998Z,0.067
2022-08-22T20:50:02.056Z,0.169
2022-08-22T20:55:01.915Z,0.021
2022-08-22T21:00:02.045Z,0.01
2022-08-22T21:05:01.946Z,0.129
2022-08-22T21:10:01.991Z,0.047
2022-08-22T21:15:02.232Z,0
2022-08-22T21:20:02.022Z,0
2022-08-22T21:25:02.236Z,0
2022-08-22T21:30:01.951Z,0.096
2022-08-22T21:35:01.932Z,0.177
2022-08-22T21:40:01.978Z,0.018000000000000002
2022-08-22T21:45:02.044Z,0.066
2022-08-22T21:50:02.153Z,0.11900000000000001
2022-08-22T21:55:02.019Z,0.006
2022-08-22T22:00:02.003Z,0.075
2022-08-22T22:05:02.034Z,0.116
2022-08-22T22:10:01.996Z,0
2022-08-22T22:15:02.311Z,0.096
2022-08-22T22:20:02.070Z,0.16
2022-08-22T22:25:02.147Z,0.004
2022-08-22T22:30:02.012Z,0.077
2022-08-22T22:35:02.003Z,0.116
2022-08-22T22:40:07.213Z,0.004
2022-08-22T22:45:02.087Z,0.088
2022-08-22T22:50:02.197Z,0.135
2022-08-22T22:55:02.039Z,0
2022-08-22T23:00:02.047Z,0.107
2022-08-22T23:05:02.036Z,0.167
2022-08-22T23:10:02.269Z,0.001
2022-08-22T23:15:02.322Z,0.09
2022-08-22T23:20:02.173Z,0.131
2022-08-22T23:25:02.174Z,0
2022-08-22T23:30:02.128Z,0.10300000000000001
2022-08-22T23:35:02.062Z,0.788
2022-08-22T23:40:02.147Z,1.497
2022-08-22T23:45:02.075Z,1.339
2022-08-22T23:50:02.931Z,1.285
2022-08-22T23:55:02.075Z,1.5050000000000001
